Easingwold, United Kingdom
Current Conditions -  °F | °C
As of 10:50 AM on Friday 28 Nov 2014 (Local Time) from EGXU Reporting Station
Drizzle Drizzle  
Wind Chill: 50°   Ceiling: 300
Heat Index: 50°   Visibility: 1.2mi
Dew Point: 50°   Wind: 9mph
Humidity: 100%   Direction: 80°E
Pressure: 29.71"   Gusts: NA
Location:  54.12°N, 1.19°W
Report Text: EGXU 281050Z 08008KT 2000 -DZ OVC003 10/10 Q1006 YLO2 TEMPO 4000 BR SCT007 GRN
Loading
Personal Weather Stations






























Interactive Weather Map New forecast layout! Learn more

10-Day Weather Forecast

Advertisements
Track Severe Weather on mobile